createdAt,value
2023-04-29T00:00:34.345Z,145.49
2023-04-29T00:01:34.391Z,145.85
2023-04-29T00:02:34.516Z,146.65
2023-04-29T00:03:34.741Z,141.87
2023-04-29T00:04:34.632Z,145.78
2023-04-29T00:05:34.683Z,141.38
2023-04-29T00:06:34.587Z,146.31
2023-04-29T00:07:34.671Z,143.99
2023-04-29T00:08:34.704Z,143.88
2023-04-29T00:09:34.744Z,147.58
2023-04-29T00:10:34.748Z,141.54
2023-04-29T00:11:34.792Z,144.14
2023-04-29T00:12:34.838Z,143.85
2023-04-29T00:13:34.880Z,145.78
2023-04-29T00:14:34.921Z,143.16
2023-04-29T00:15:34.945Z,146.23
2023-04-29T00:16:35.004Z,143.73
2023-04-29T00:17:35.116Z,146.25
2023-04-29T00:18:35.128Z,144.46
2023-04-29T00:19:35.213Z,142.02
2023-04-29T00:20:35.232Z,143.02
2023-04-29T00:21:35.302Z,142.92
2023-04-29T00:22:35.412Z,140.99
2023-04-29T00:23:35.429Z,140.75
2023-04-29T00:24:35.462Z,138.87
2023-04-29T00:25:35.494Z,141.87
2023-04-29T00:26:35.507Z,140.09
2023-04-29T00:27:35.568Z,140.02
2023-04-29T00:28:35.568Z,140.71
2023-04-29T00:29:35.618Z,139.06
2023-04-29T00:30:36.525Z,145.74
2023-04-29T00:31:35.758Z,141.73
2023-04-29T00:32:35.759Z,140.25
2023-04-29T00:33:35.753Z,138.95
2023-04-29T00:34:35.803Z,137.58
2023-04-29T00:35:35.848Z,136.62
2023-04-29T00:36:35.847Z,137.55
2023-04-29T00:37:35.885Z,139.32
2023-04-29T00:38:35.940Z,140.04
2023-04-29T00:39:36.034Z,137.46
2023-04-29T00:40:35.997Z,137.04
2023-04-29T00:41:36.085Z,140.01
2023-04-29T00:42:36.103Z,138.63
2023-04-29T00:43:36.117Z,139.16
2023-04-29T00:44:36.154Z,140.38
2023-04-29T00:45:36.147Z,138.71
2023-04-29T00:46:36.194Z,138.64
2023-04-29T00:47:36.239Z,139.78
2023-04-29T00:48:36.230Z,138.90
2023-04-29T00:49:36.325Z,136.87
2023-04-29T00:50:36.299Z,139.95
2023-04-29T00:51:36.351Z,135.23
2023-04-29T00:52:36.352Z,139.06
2023-04-29T00:53:36.469Z,137.37
2023-04-29T00:54:36.486Z,136.60
2023-04-29T00:55:36.498Z,138.89
2023-04-29T00:56:36.578Z,137.20
2023-04-29T00:57:36.577Z,135.25
2023-04-29T00:58:36.622Z,140.05
2023-04-29T00:59:36.682Z,137.80
2023-04-29T01:00:36.718Z,139.82
2023-04-29T01:01:36.798Z,135.64
2023-04-29T01:02:36.817Z,139.83
2023-04-29T01:03:36.985Z,136.57
2023-04-29T01:04:36.919Z,137.34
2023-04-29T01:05:36.950Z,140.80
2023-04-29T01:06:36.949Z,138.96
2023-04-29T01:07:36.994Z,135.50
2023-04-29T01:08:37.037Z,135.38
2023-04-29T01:09:37.124Z,139.55
2023-04-29T01:10:37.142Z,136.76
2023-04-29T01:11:37.215Z,136.85
2023-04-29T01:12:37.222Z,135.51
2023-04-29T01:13:37.247Z,136.50
2023-04-29T01:14:37.299Z,134.34
2023-04-29T01:15:37.335Z,140.37
2023-04-29T01:16:37.554Z,137.36
2023-04-29T01:17:37.399Z,135.37
2023-04-29T01:18:37.445Z,140.84
2023-04-29T01:19:37.490Z,136.89
2023-04-29T01:20:37.504Z,134.23
2023-04-29T01:21:37.520Z,137.40
2023-04-29T01:22:37.507Z,137.64
2023-04-29T01:23:37.544Z,135.56
2023-04-29T01:24:37.573Z,134.78
2023-04-29T01:25:37.582Z,133.52
2023-04-29T01:26:37.594Z,138.51
2023-04-29T01:27:37.616Z,137.73
2023-04-29T01:28:37.633Z,135.25
2023-04-29T01:29:37.663Z,137.12
2023-04-29T01:30:37.683Z,138.23
2023-04-29T01:31:37.736Z,136.28
2023-04-29T01:32:37.804Z,132.21
2023-04-29T01:33:37.778Z,134.47
2023-04-29T01:34:37.789Z,134.67
2023-04-29T01:35:37.814Z,135.26
2023-04-29T01:36:37.851Z,133.79
2023-04-29T01:37:37.904Z,134.32
2023-04-29T01:38:37.937Z,138.09
2023-04-29T01:39:37.984Z,132.48
2023-04-29T01:40:38.029Z,135.82
2023-04-29T01:41:38.058Z,132.82
2023-04-29T01:42:38.131Z,134.36
2023-04-29T01:43:38.179Z,133.55
2023-04-29T01:44:38.231Z,135.58
2023-04-29T01:45:38.243Z,134.39
2023-04-29T01:46:38.273Z,131.30
2023-04-29T01:47:38.363Z,132.67
2023-04-29T01:48:38.366Z,134.12
2023-04-29T01:49:38.416Z,132.18
2023-04-29T01:50:38.416Z,133.82
2023-04-29T01:51:38.523Z,132.72
2023-04-29T01:52:38.521Z,131.33
2023-04-29T01:53:38.552Z,134.71
2023-04-29T01:54:38.602Z,131.65
2023-04-29T01:55:38.618Z,126.87
2023-04-29T01:56:38.622Z,130.66
2023-04-29T01:57:38.705Z,131.81
2023-04-29T01:58:38.770Z,128.59
2023-04-29T01:59:38.803Z,131.78
2023-04-29T02:00:38.906Z,135.02
2023-04-29T02:01:38.886Z,129.01
2023-04-29T02:02:38.967Z,128.62
2023-04-29T02:03:39.184Z,133.29
2023-04-29T02:04:39.067Z,131.50
2023-04-29T02:05:39.024Z,132.40
2023-04-29T02:06:39.053Z,135.54
2023-04-29T02:07:39.114Z,129.64
2023-04-29T02:08:39.136Z,129.06
2023-04-29T02:09:39.210Z,129.94
2023-04-29T02:10:39.208Z,130.58
2023-04-29T02:11:39.252Z,128.02
2023-04-29T02:12:39.238Z,129.16
2023-04-29T02:13:39.316Z,132.28
2023-04-29T02:14:39.390Z,131.49
2023-04-29T02:15:39.423Z,127.58
2023-04-29T02:16:39.495Z,131.76
2023-04-29T02:17:39.528Z,132.64
2023-04-29T02:18:39.574Z,132.99
2023-04-29T02:19:39.589Z,127.84
2023-04-29T02:20:39.621Z,131.19
2023-04-29T02:21:39.674Z,132.09
2023-04-29T02:22:39.710Z,130.86
2023-04-29T02:23:39.715Z,126.28
2023-04-29T02:24:39.786Z,129.26
2023-04-29T02:25:39.816Z,131.70
2023-04-29T02:26:39.854Z,126.80
2023-04-29T02:27:39.888Z,127.63
2023-04-29T02:28:39.916Z,126.89
2023-04-29T02:29:40.035Z,130.60
2023-04-29T02:30:40.030Z,131.26
2023-04-29T02:31:40.109Z,125.87
2023-04-29T02:32:40.127Z,127.13
2023-04-29T02:33:40.203Z,125.55
2023-04-29T02:34:40.282Z,125.09
2023-04-29T02:35:40.309Z,127.03
2023-04-29T02:36:40.374Z,128.11
2023-04-29T02:37:40.499Z,129.30
2023-04-29T02:38:40.431Z,129.34
2023-04-29T02:39:40.479Z,123.71
2023-04-29T02:40:40.426Z,126.82
2023-04-29T02:41:40.413Z,125.64
2023-04-29T02:42:40.394Z,127.65
2023-04-29T02:43:40.379Z,128.39
2023-04-29T02:44:40.396Z,127.90
2023-04-29T02:45:40.431Z,123.83
2023-04-29T02:46:40.381Z,125.63
2023-04-29T02:47:40.496Z,127.04
2023-04-29T02:48:40.374Z,126.23
2023-04-29T02:49:40.404Z,123.23
2023-04-29T02:50:40.426Z,125.78
2023-04-29T02:51:40.427Z,123.86
2023-04-29T02:52:40.519Z,125.06
2023-04-29T02:53:40.467Z,121.08
2023-04-29T02:54:40.555Z,118.84
2023-04-29T02:55:40.526Z,125.40
2023-04-29T02:56:40.556Z,124.07
2023-04-29T02:57:40.575Z,120.17
2023-04-29T02:58:40.580Z,124.71
2023-04-29T02:59:40.619Z,117.69
2023-04-29T03:00:40.645Z,123.98
2023-04-29T03:01:40.770Z,117.35
2023-04-29T03:02:40.786Z,123.49
2023-04-29T03:03:40.811Z,122.38
2023-04-29T03:04:40.717Z,119.57
2023-04-29T03:05:40.733Z,119.24
2023-04-29T03:06:40.751Z,118.14
2023-04-29T03:07:40.754Z,121.01
2023-04-29T03:08:40.776Z,117.83
2023-04-29T03:09:40.797Z,123.96
2023-04-29T03:10:41.825Z,122.20
2023-04-29T03:11:40.822Z,120.46
2023-04-29T03:12:40.849Z,118.36
2023-04-29T03:13:40.838Z,121.06
2023-04-29T03:14:40.858Z,120.04
2023-04-29T03:15:40.839Z,117.90
2023-04-29T03:16:40.935Z,121.05
2023-04-29T03:17:40.904Z,121.66
2023-04-29T03:18:40.878Z,121.91
2023-04-29T03:19:40.903Z,120.73
2023-04-29T03:20:40.922Z,116.43
2023-04-29T03:21:40.930Z,125.10
2023-04-29T03:22:40.970Z,120.46
2023-04-29T03:23:40.978Z,116.87
2023-04-29T03:24:40.946Z,121.38
2023-04-29T03:25:41.048Z,120.73
2023-04-29T03:26:41.006Z,116.70
2023-04-29T03:27:41.006Z,115.98
2023-04-29T03:28:41.026Z,117.52
2023-04-29T03:29:41.013Z,118.10
2023-04-29T03:30:41.037Z,113.30
2023-04-29T03:31:41.084Z,118.03
2023-04-29T03:32:41.073Z,122.37
2023-04-29T03:33:41.094Z,120.34
2023-04-29T03:34:41.070Z,114.37
2023-04-29T03:35:41.066Z,118.03
2023-04-29T03:36:41.094Z,115.37
2023-04-29T03:37:41.141Z,117.37
2023-04-29T03:38:42.949Z,116.19
2023-04-29T03:39:41.288Z,113.77
2023-04-29T03:40:41.173Z,115.21
2023-04-29T03:41:41.219Z,112.93
2023-04-29T03:42:41.218Z,113.23
2023-04-29T03:43:41.225Z,113.44
2023-04-29T03:44:41.216Z,108.43
2023-04-29T03:45:41.262Z,115.22
2023-04-29T03:46:41.428Z,110.28
2023-04-29T03:47:41.334Z,117.69
2023-04-29T03:48:41.329Z,111.28
2023-04-29T03:49:41.366Z,116.50
2023-04-29T03:50:41.401Z,118.20
2023-04-29T03:51:41.404Z,111.41
2023-04-29T03:52:41.458Z,112.31
2023-04-29T03:53:41.440Z,110.30
2023-04-29T03:54:41.466Z,114.56
2023-04-29T03:55:41.503Z,114.16
2023-04-29T03:56:41.529Z,112.13
2023-04-29T03:57:42.627Z,113.13
2023-04-29T03:58:41.551Z,109.38
2023-04-29T03:59:41.524Z,114.42
2023-04-29T04:00:41.556Z,112.96
2023-04-29T04:01:41.610Z,116.47
2023-04-29T04:02:41.740Z,111.11
2023-04-29T04:03:41.785Z,108.54
2023-04-29T04:04:41.874Z,113.74
2023-04-29T04:05:41.770Z,109.24
2023-04-29T04:06:41.805Z,112.59
2023-04-29T04:07:41.839Z,116.76
2023-04-29T04:08:42.382Z,109.31
2023-04-29T04:09:42.007Z,115.22
2023-04-29T04:10:41.952Z,113.58
2023-04-29T04:11:41.955Z,107.66
2023-04-29T04:12:44.142Z,114.02
2023-04-29T04:13:42.007Z,113.51
2023-04-29T04:14:41.998Z,110.35
2023-04-29T04:15:42.062Z,112.72
2023-04-29T04:16:42.258Z,113.83
2023-04-29T04:17:42.128Z,112.05
2023-04-29T04:18:42.040Z,112.61
2023-04-29T04:19:42.033Z,114.14
2023-04-29T04:20:42.174Z,114.92
2023-04-29T04:21:42.110Z,110.23
2023-04-29T04:22:42.128Z,106.23
2023-04-29T04:23:42.136Z,115.00
2023-04-29T04:24:42.148Z,109.77
2023-04-29T04:25:42.183Z,109.37
2023-04-29T04:26:42.214Z,110.61
2023-04-29T04:27:42.202Z,112.85
2023-04-29T04:28:42.225Z,111.93
2023-04-29T04:29:42.226Z,110.68
2023-04-29T04:30:42.270Z,104.79
2023-04-29T04:31:43.026Z,105.82
2023-04-29T04:32:42.273Z,108.57
2023-04-29T04:33:42.237Z,105.31
2023-04-29T04:34:42.273Z,109.20
2023-04-29T04:35:42.289Z,106.73
2023-04-29T04:36:42.263Z,112.15
2023-04-29T04:37:42.285Z,109.81
2023-04-29T04:38:42.284Z,103.84
2023-04-29T04:39:42.362Z,106.61
2023-04-29T04:40:42.263Z,106.14
2023-04-29T04:41:42.260Z,104.14
2023-04-29T04:42:42.307Z,106.35
2023-04-29T04:43:42.327Z,102.55
2023-04-29T04:44:42.373Z,101.78
2023-04-29T04:45:42.362Z,106.39
2023-04-29T04:46:42.298Z,102.44
2023-04-29T04:47:42.346Z,104.62
2023-04-29T04:48:42.319Z,105.20
2023-04-29T04:49:42.279Z,104.38
2023-04-29T04:50:42.331Z,104.30
2023-04-29T04:51:42.278Z,109.00
2023-04-29T04:52:42.293Z,107.51
2023-04-29T04:53:42.303Z,100.97
2023-04-29T04:54:42.321Z,106.25
2023-04-29T04:55:42.344Z,103.35
2023-04-29T04:56:42.297Z,103.64
2023-04-29T04:57:42.358Z,103.25
2023-04-29T04:58:42.344Z,104.14
2023-04-29T04:59:42.311Z,107.04
2023-04-29T05:00:42.326Z,102.87
2023-04-29T05:01:42.386Z,102.18
2023-04-29T05:02:42.506Z,104.35
2023-04-29T05:03:42.538Z,102.18
2023-04-29T05:04:42.389Z,102.43
2023-04-29T05:05:42.398Z,100.16
2023-04-29T05:06:42.396Z,103.66
2023-04-29T05:07:42.409Z,99.34
2023-04-29T05:08:42.385Z,101.15
2023-04-29T05:09:42.376Z,99.16
2023-04-29T05:10:42.404Z,106.44
2023-04-29T05:11:42.404Z,103.05
2023-04-29T05:12:42.405Z,102.50
2023-04-29T05:13:42.413Z,105.39
2023-04-29T05:14:42.410Z,100.74
2023-04-29T05:15:42.941Z,99.23
2023-04-29T05:16:42.427Z,102.57
2023-04-29T05:17:42.434Z,103.75
2023-04-29T05:18:42.455Z,99.97
2023-04-29T05:19:42.459Z,101.53
2023-04-29T05:20:42.413Z,101.37
2023-04-29T05:21:42.467Z,102.85
2023-04-29T05:22:42.451Z,98.69
2023-04-29T05:23:42.498Z,101.23
2023-04-29T05:24:42.506Z,95.34
2023-04-29T05:25:42.512Z,103.90
2023-04-29T05:26:42.509Z,102.62
2023-04-29T05:27:42.518Z,96.18
2023-04-29T05:28:42.550Z,95.15
2023-04-29T05:29:42.548Z,95.93
2023-04-29T05:30:42.548Z,95.81
2023-04-29T05:31:42.547Z,98.32
2023-04-29T05:32:42.579Z,101.57
2023-04-29T05:33:42.539Z,98.29
2023-04-29T05:34:42.574Z,97.35
2023-04-29T05:35:42.546Z,98.68
2023-04-29T05:36:42.533Z,92.85
2023-04-29T05:37:42.547Z,98.49
2023-04-29T05:38:42.534Z,96.54
2023-04-29T05:39:42.590Z,99.31
2023-04-29T05:40:42.598Z,98.08
2023-04-29T05:41:42.608Z,98.71
2023-04-29T05:42:42.632Z,102.64
2023-04-29T05:43:42.609Z,98.05
2023-04-29T05:44:42.690Z,94.12
2023-04-29T05:45:42.700Z,99.00
2023-04-29T05:46:42.805Z,96.01
2023-04-29T05:47:42.794Z,98.29
2023-04-29T05:48:42.768Z,102.32
2023-04-29T05:49:42.778Z,97.31
2023-04-29T05:50:42.798Z,99.89
2023-04-29T05:51:42.786Z,97.97
2023-04-29T05:52:42.806Z,100.94
2023-04-29T05:53:42.798Z,93.63
2023-04-29T05:54:42.831Z,100.06
2023-04-29T05:55:42.841Z,101.07
2023-04-29T05:56:42.905Z,96.20
2023-04-29T05:57:42.929Z,95.41
2023-04-29T05:58:42.944Z,95.20
2023-04-29T05:59:42.946Z,98.31
2023-04-29T06:00:42.943Z,96.32
2023-04-29T06:01:42.969Z,95.77
2023-04-29T06:02:54.683Z,101.91
2023-04-29T06:03:44.126Z,101.94
2023-04-29T06:04:43.095Z,93.95
2023-04-29T06:05:43.262Z,96.50
2023-04-29T06:06:42.932Z,99.19
2023-04-29T06:07:42.958Z,94.29
2023-04-29T06:08:42.938Z,94.24
2023-04-29T06:09:42.928Z,96.05
2023-04-29T06:10:42.934Z,94.72
2023-04-29T06:11:42.905Z,96.57
2023-04-29T06:12:42.916Z,96.36
2023-04-29T06:13:42.906Z,97.52
2023-04-29T06:14:42.895Z,95.83
2023-04-29T06:15:42.954Z,99.35
2023-04-29T06:16:42.883Z,95.93
2023-04-29T06:17:42.922Z,94.71
2023-04-29T06:18:42.872Z,98.35
2023-04-29T06:19:42.866Z,92.75
2023-04-29T06:20:42.897Z,97.38
2023-04-29T06:21:42.835Z,99.03
2023-04-29T06:22:42.844Z,93.10
2023-04-29T06:23:42.894Z,91.84
2023-04-29T06:24:42.958Z,90.12
2023-04-29T06:25:43.023Z,89.98
2023-04-29T06:26:43.013Z,94.43
2023-04-29T06:27:43.050Z,98.07
2023-04-29T06:28:43.083Z,94.08
2023-04-29T06:29:43.100Z,95.21
2023-04-29T06:30:43.147Z,94.55
2023-04-29T06:31:43.213Z,92.23
2023-04-29T06:32:43.203Z,92.30
2023-04-29T06:33:43.216Z,93.39
2023-04-29T06:34:43.234Z,94.52
2023-04-29T06:35:43.289Z,94.95
2023-04-29T06:36:43.296Z,96.25
2023-04-29T06:37:43.357Z,94.91
2023-04-29T06:38:43.377Z,91.35
2023-04-29T06:39:43.426Z,92.70
2023-04-29T06:40:43.504Z,88.84
2023-04-29T06:41:43.499Z,87.92
2023-04-29T06:42:43.586Z,89.12
2023-04-29T06:43:43.645Z,97.36
2023-04-29T06:44:43.685Z,89.91
2023-04-29T06:45:43.724Z,94.85
2023-04-29T06:46:43.829Z,91.21
2023-04-29T06:47:43.907Z,91.07
2023-04-29T06:48:43.910Z,95.02
2023-04-29T06:49:43.949Z,91.00
2023-04-29T06:50:43.994Z,92.00
2023-04-29T06:51:44.099Z,92.18
2023-04-29T06:52:44.140Z,93.23
2023-04-29T06:53:44.189Z,89.97
2023-04-29T06:54:44.269Z,93.56
2023-04-29T06:55:44.331Z,90.31
2023-04-29T06:56:44.370Z,90.20
2023-04-29T06:57:44.460Z,91.29
2023-04-29T06:58:44.516Z,92.17
2023-04-29T06:59:44.567Z,91.27
2023-04-29T07:00:44.690Z,92.33
2023-04-29T07:01:46.101Z,93.43
2023-04-29T07:02:44.770Z,90.51
2023-04-29T07:03:44.910Z,93.30
2023-04-29T07:04:44.938Z,97.67
2023-04-29T07:05:44.931Z,91.03
2023-04-29T07:06:44.987Z,95.98
2023-04-29T07:07:45.035Z,91.12
2023-04-29T07:08:45.097Z,93.32
2023-04-29T07:09:45.217Z,92.09
2023-04-29T07:10:45.218Z,92.68
2023-04-29T07:11:45.257Z,95.64
2023-04-29T07:12:45.413Z,92.33
2023-04-29T07:13:45.336Z,94.56
2023-04-29T07:14:45.443Z,98.04
2023-04-29T07:15:45.456Z,95.10
2023-04-29T07:16:45.650Z,97.05
2023-04-29T07:17:45.608Z,96.98
2023-04-29T07:18:45.612Z,99.40
2023-04-29T07:19:45.703Z,97.87
2023-04-29T07:20:45.775Z,98.45
2023-04-29T07:21:45.794Z,96.42
2023-04-29T07:22:45.836Z,97.67
2023-04-29T07:23:45.916Z,98.40
2023-04-29T07:24:45.964Z,98.36
2023-04-29T07:25:46.024Z,95.67
2023-04-29T07:26:46.065Z,94.45
2023-04-29T07:27:46.128Z,96.65
2023-04-29T07:28:46.182Z,99.04
2023-04-29T07:29:46.264Z,95.68
2023-04-29T07:30:46.333Z,96.63
2023-04-29T07:31:46.351Z,97.71
2023-04-29T07:32:46.474Z,100.45
2023-04-29T07:33:46.479Z,97.66
2023-04-29T07:34:46.505Z,97.45
2023-04-29T07:35:46.542Z,95.03
2023-04-29T07:36:46.606Z,94.74
2023-04-29T07:37:46.642Z,97.73
2023-04-29T07:38:46.679Z,94.42
2023-04-29T07:39:46.714Z,93.78
2023-04-29T07:40:46.792Z,95.80
2023-04-29T07:41:46.834Z,91.28
2023-04-29T07:42:46.864Z,92.76
2023-04-29T07:43:46.953Z,89.53
2023-04-29T07:44:46.983Z,94.06
2023-04-29T07:45:47.038Z,91.16
2023-04-29T07:46:47.105Z,90.32
2023-04-29T07:47:47.664Z,91.46
2023-04-29T07:48:47.158Z,88.74
2023-04-29T07:49:47.201Z,95.99
2023-04-29T07:50:47.267Z,92.61
2023-04-29T07:51:47.325Z,91.06
2023-04-29T07:52:47.361Z,87.70
2023-04-29T07:53:47.425Z,87.65
2023-04-29T07:54:47.481Z,92.47
2023-04-29T07:55:47.537Z,88.58
2023-04-29T07:56:47.527Z,89.66
2023-04-29T07:57:47.629Z,87.64
2023-04-29T07:58:47.615Z,90.05
2023-04-29T07:59:47.679Z,85.99
2023-04-29T08:00:47.707Z,87.30
2023-04-29T08:01:47.746Z,88.44
2023-04-29T08:02:47.893Z,87.78
2023-04-29T08:03:47.977Z,86.56
2023-04-29T08:04:48.132Z,85.03
2023-04-29T08:05:47.907Z,87.53
2023-04-29T08:06:47.923Z,85.62
2023-04-29T08:07:47.998Z,84.36
2023-04-29T08:08:47.994Z,81.68
2023-04-29T08:09:48.041Z,82.97
2023-04-29T08:10:48.089Z,83.82
2023-04-29T08:11:48.082Z,85.10
2023-04-29T08:12:48.160Z,82.66
2023-04-29T08:13:48.218Z,82.39
2023-04-29T08:14:48.220Z,83.33
2023-04-29T08:15:48.277Z,83.22
2023-04-29T08:16:48.299Z,83.86
2023-04-29T08:17:48.375Z,83.12
2023-04-29T08:18:48.324Z,80.56
2023-04-29T08:19:48.372Z,79.49
2023-04-29T08:20:48.405Z,79.53
2023-04-29T08:21:48.448Z,81.17
2023-04-29T08:22:48.448Z,81.86
2023-04-29T08:23:48.488Z,80.77
2023-04-29T08:24:48.519Z,80.41
2023-04-29T08:25:48.543Z,80.40
2023-04-29T08:26:48.548Z,82.75
2023-04-29T08:27:48.585Z,79.07
2023-04-29T08:28:48.591Z,80.11
2023-04-29T08:29:48.634Z,77.77
2023-04-29T08:30:48.666Z,78.33
2023-04-29T08:31:48.687Z,80.77
2023-04-29T08:32:48.762Z,80.59
2023-04-29T08:33:48.695Z,78.11
2023-04-29T08:34:48.747Z,75.74
2023-04-29T08:35:48.778Z,77.44
2023-04-29T08:36:48.791Z,76.25
2023-04-29T08:37:48.833Z,77.79
2023-04-29T08:38:48.849Z,76.15
2023-04-29T08:39:48.840Z,75.84
2023-04-29T08:40:48.889Z,77.28
2023-04-29T08:41:49.052Z,76.47
2023-04-29T08:42:49.253Z,74.47
2023-04-29T08:43:48.967Z,75.26
2023-04-29T08:44:48.926Z,73.67
2023-04-29T08:45:49.013Z,78.31
2023-04-29T08:46:48.997Z,75.97
2023-04-29T08:47:49.092Z,73.17
2023-04-29T08:48:49.084Z,73.89
2023-04-29T08:49:49.107Z,73.48
2023-04-29T08:50:49.086Z,74.38
2023-04-29T08:51:49.128Z,71.37
2023-04-29T08:52:49.136Z,73.18
2023-04-29T08:53:49.101Z,71.74
2023-04-29T08:54:50.111Z,73.52
2023-04-29T08:55:49.408Z,72.10
2023-04-29T08:56:49.169Z,74.62
2023-04-29T08:57:49.279Z,73.55
2023-04-29T08:58:49.226Z,73.14
2023-04-29T08:59:49.215Z,72.23
2023-04-29T09:00:49.266Z,72.05
2023-04-29T09:01:49.240Z,69.90
2023-04-29T09:02:49.272Z,70.55
2023-04-29T09:03:49.402Z,70.20
2023-04-29T09:04:49.309Z,68.98
2023-04-29T09:05:49.282Z,67.78
2023-04-29T09:06:49.279Z,66.74
2023-04-29T09:07:49.295Z,68.69
2023-04-29T09:08:49.317Z,67.67
2023-04-29T09:09:49.334Z,64.22
2023-04-29T09:10:49.322Z,65.89
2023-04-29T09:11:49.333Z,67.61
2023-04-29T09:12:49.335Z,66.73
2023-04-29T09:13:49.364Z,65.95
2023-04-29T09:14:49.383Z,66.32
2023-04-29T09:15:49.379Z,66.55
2023-04-29T09:16:49.515Z,66.01
2023-04-29T09:17:49.415Z,66.14
2023-04-29T09:18:49.470Z,67.62
2023-04-29T09:19:49.429Z,65.70
2023-04-29T09:20:49.471Z,61.94
2023-04-29T09:21:49.484Z,61.58
2023-04-29T09:22:49.461Z,64.12
2023-04-29T09:23:49.485Z,63.62
2023-04-29T09:24:49.494Z,64.22
2023-04-29T09:25:49.520Z,64.34
2023-04-29T09:26:51.791Z,64.15
2023-04-29T09:27:49.547Z,67.18
2023-04-29T09:28:49.563Z,64.10
2023-04-29T09:29:49.557Z,64.15
2023-04-29T09:30:49.600Z,62.21
2023-04-29T09:31:49.624Z,65.00
2023-04-29T09:32:49.670Z,60.39
2023-04-29T09:33:49.615Z,63.79
2023-04-29T09:34:49.627Z,61.20
2023-04-29T09:35:49.623Z,62.80
2023-04-29T09:36:49.680Z,60.97
2023-04-29T09:37:49.669Z,61.20
2023-04-29T09:38:49.749Z,62.69
2023-04-29T09:39:49.763Z,62.02
2023-04-29T09:40:58.821Z,62.64
2023-04-29T09:41:50.717Z,62.78
2023-04-29T09:42:49.779Z,62.02
2023-04-29T09:43:49.716Z,62.74
2023-04-29T09:44:49.725Z,62.07
2023-04-29T09:45:49.767Z,62.82
2023-04-29T09:46:49.696Z,61.95
2023-04-29T09:47:49.729Z,62.21
2023-04-29T09:48:49.702Z,59.48
2023-04-29T09:49:49.707Z,60.81
2023-04-29T09:50:49.690Z,60.07
2023-04-29T09:51:49.687Z,61.03
2023-04-29T09:52:49.663Z,60.15
2023-04-29T09:53:49.691Z,59.06
2023-04-29T09:54:49.655Z,58.51
2023-04-29T09:55:49.662Z,56.74
2023-04-29T09:56:49.645Z,59.04
2023-04-29T09:57:49.655Z,56.81
2023-04-29T09:58:49.672Z,56.33
2023-04-29T09:59:49.643Z,57.46
2023-04-29T10:00:49.621Z,57.11
2023-04-29T10:01:49.694Z,61.05
2023-04-29T10:02:49.681Z,57.25
2023-04-29T10:03:49.640Z,62.89
2023-04-29T10:04:49.647Z,64.42
2023-04-29T10:05:49.601Z,61.12
2023-04-29T10:06:49.649Z,63.03
2023-04-29T10:07:49.622Z,61.46
2023-04-29T10:08:49.631Z,62.60
2023-04-29T10:09:49.655Z,65.94
2023-04-29T10:10:49.694Z,63.72
2023-04-29T10:11:49.710Z,62.76
2023-04-29T10:12:49.725Z,63.74
2023-04-29T10:13:49.702Z,62.74
2023-04-29T10:14:49.729Z,62.90
2023-04-29T10:15:49.770Z,64.09
2023-04-29T10:16:49.799Z,64.02
2023-04-29T10:17:49.814Z,63.30
2023-04-29T10:18:49.800Z,62.11
2023-04-29T10:19:49.803Z,60.53
2023-04-29T10:20:49.795Z,57.11
2023-04-29T10:21:49.999Z,58.53
2023-04-29T10:22:49.901Z,59.56
2023-04-29T10:23:49.906Z,61.68
2023-04-29T10:24:49.914Z,60.27
2023-04-29T10:25:49.889Z,62.32
2023-04-29T10:26:49.907Z,59.37
2023-04-29T10:27:49.936Z,56.49
2023-04-29T10:28:50.029Z,59.02
2023-04-29T10:29:50.083Z,62.10
2023-04-29T10:30:50.076Z,58.98
2023-04-29T10:31:50.197Z,59.50
2023-04-29T10:32:52.037Z,58.40
2023-04-29T10:33:50.075Z,59.93
2023-04-29T10:34:50.092Z,57.97
2023-04-29T10:35:50.033Z,58.32
2023-04-29T10:36:50.110Z,58.69
2023-04-29T10:37:50.002Z,58.23
2023-04-29T10:38:49.999Z,60.85
2023-04-29T10:39:50.079Z,59.80
2023-04-29T10:40:50.015Z,61.34
2023-04-29T10:41:49.991Z,58.81
2023-04-29T10:42:50.018Z,60.02
2023-04-29T10:43:49.976Z,57.84
2023-04-29T10:44:49.975Z,58.86
2023-04-29T10:45:49.974Z,58.76
2023-04-29T10:46:50.012Z,55.23
2023-04-29T10:47:49.967Z,55.04
2023-04-29T10:48:49.965Z,55.23
2023-04-29T10:49:49.959Z,55.05
2023-04-29T10:50:50.035Z,58.84
2023-04-29T10:51:49.964Z,54.75
2023-04-29T10:52:49.907Z,54.43
2023-04-29T10:53:49.908Z,54.94
2023-04-29T10:54:49.969Z,54.82
2023-04-29T10:55:49.909Z,55.36
2023-04-29T10:56:49.941Z,54.30
2023-04-29T10:57:49.887Z,53.52
2023-04-29T10:58:49.904Z,54.61
2023-04-29T10:59:49.890Z,54.17
2023-04-29T11:00:50.014Z,53.60
2023-04-29T11:01:49.913Z,53.09
2023-04-29T11:02:49.986Z,49.22
2023-04-29T11:03:50.027Z,49.05
2023-04-29T11:04:50.008Z,52.86
2023-04-29T11:05:49.856Z,49.24
2023-04-29T11:06:49.866Z,48.98
2023-04-29T11:07:49.818Z,49.41
2023-04-29T11:08:49.877Z,48.03
2023-04-29T11:09:49.824Z,50.69
2023-04-29T11:10:49.817Z,50.65
2023-04-29T11:11:49.876Z,49.63
2023-04-29T11:12:49.825Z,52.27
2023-04-29T11:13:49.846Z,52.25
2023-04-29T11:14:49.816Z,54.06
2023-04-29T11:15:49.811Z,52.72
2023-04-29T11:16:49.854Z,54.89
2023-04-29T11:17:49.850Z,54.64
2023-04-29T11:18:49.758Z,53.44
2023-04-29T11:19:49.769Z,52.62
2023-04-29T11:20:49.735Z,56.50
2023-04-29T11:21:49.760Z,54.87
2023-04-29T11:22:49.742Z,54.89
2023-04-29T11:23:49.727Z,54.88
2023-04-29T11:24:49.752Z,55.50
2023-04-29T11:25:49.723Z,54.11
2023-04-29T11:26:49.732Z,50.50
2023-04-29T11:27:49.696Z,49.56
2023-04-29T11:28:49.726Z,50.64
2023-04-29T11:29:49.694Z,51.07
2023-04-29T11:30:49.696Z,52.66
2023-04-29T11:31:49.794Z,51.25
2023-04-29T11:32:49.721Z,52.25
2023-04-29T11:33:49.657Z,52.82
2023-04-29T11:34:49.677Z,54.40
2023-04-29T11:35:49.677Z,53.77
2023-04-29T11:36:49.629Z,56.28
2023-04-29T11:37:49.661Z,55.72
2023-04-29T11:38:49.669Z,55.14
2023-04-29T11:39:49.631Z,58.70
2023-04-29T11:40:49.638Z,57.97
2023-04-29T11:41:51.235Z,54.94
2023-04-29T11:42:49.694Z,53.74
2023-04-29T11:43:49.620Z,54.40
2023-04-29T11:44:49.585Z,55.52
2023-04-29T11:45:49.656Z,57.07
2023-04-29T11:46:49.607Z,53.84
2023-04-29T11:47:49.629Z,55.36
2023-04-29T11:48:49.552Z,55.14
2023-04-29T11:49:49.571Z,51.07
2023-04-29T11:50:49.597Z,53.45
2023-04-29T11:51:49.574Z,53.45
2023-04-29T11:52:49.589Z,52.78
2023-04-29T11:53:49.557Z,51.26
2023-04-29T11:54:49.558Z,52.50
2023-04-29T11:55:49.523Z,50.54
2023-04-29T11:56:49.501Z,51.40
2023-04-29T11:57:49.499Z,54.21
2023-04-29T11:58:49.521Z,52.13
2023-04-29T11:59:49.515Z,49.50
2023-04-29T12:00:49.516Z,43.86
2023-04-29T12:01:49.510Z,45.08
2023-04-29T12:02:49.598Z,43.72
2023-04-29T12:03:49.604Z,44.20
2023-04-29T12:04:49.520Z,42.46
2023-04-29T12:05:49.537Z,42.23
2023-04-29T12:06:49.449Z,40.83
2023-04-29T12:07:49.453Z,41.84
2023-04-29T12:08:49.444Z,43.98
2023-04-29T12:09:49.445Z,42.13
2023-04-29T12:10:49.426Z,41.39
2023-04-29T12:11:49.422Z,39.86
2023-04-29T12:12:49.418Z,40.04
2023-04-29T12:13:49.415Z,40.32
2023-04-29T12:14:49.400Z,45.11
2023-04-29T12:15:49.407Z,43.36
2023-04-29T12:16:49.411Z,40.40
2023-04-29T12:17:49.408Z,43.65
2023-04-29T12:18:49.362Z,40.52
2023-04-29T12:19:49.382Z,38.71
2023-04-29T12:20:49.356Z,38.71
2023-04-29T12:21:49.382Z,37.94
2023-04-29T12:22:49.344Z,35.08
2023-04-29T12:23:49.337Z,33.47
2023-04-29T12:24:49.350Z,33.86
2023-04-29T12:25:49.339Z,32.30
2023-04-29T12:26:49.410Z,34.12
2023-04-29T12:27:49.468Z,31.35
2023-04-29T12:28:49.515Z,32.83
2023-04-29T12:29:49.567Z,30.83
2023-04-29T12:30:49.652Z,31.63
2023-04-29T12:31:49.752Z,28.53
2023-04-29T12:32:49.854Z,31.36
2023-04-29T12:33:49.815Z,28.71
2023-04-29T12:34:49.890Z,27.59
2023-04-29T12:35:49.953Z,29.06
2023-04-29T12:36:50.048Z,26.01
2023-04-29T12:37:50.084Z,28.55
2023-04-29T12:38:50.116Z,30.74
2023-04-29T12:39:50.196Z,27.02
2023-04-29T12:40:50.228Z,28.33
2023-04-29T12:41:50.290Z,25.10
2023-04-29T12:42:50.383Z,27.29